Terminal Aerodrome Forecast
Issued by NWS Twin Cities, MN

Home | Current Version | Previous Version | Graphics & Text | Print | Product List | Glossary On
Versions: 1 2 3 4 5 6 7 8 9 10 11 12 13 14 15 16
000
FTUS43 KMPX 290052 AAA
TAFSTC
TAF AMD
KSTC 290052Z 2901/2924 29011G17KT P6SM VCSH SCT050 BKN090
      TEMPO 2901/2902 33020G35KT 3SM -TSRA BR BKN035CB
     FM290300 29010KT P6SM BKN100
     FM290900 28011KT P6SM OVC035
     FM291300 30015G22KT P6SM OVC015
     FM291800 30017G25KT P6SM -SHRA OVC025=

USA.gov is the U.S. government's official web portal to all federal, state and local government web resources and services.